ROMMA est une association bénévole à but non lucratif. Votre soutien est indispensable : ADHERER à ROMMA ou FAIRE un DON

Peyrus - (26, Drôme)

Vercors Ouest (430 m)   Longitude: 05°06'28"E   Latitude: 44°54'41"N Station partenaire n°83
 

Détail journalier du     <<     >>

Température Precipitation Humidité Pression Vent Dir Rafale Dir. rafale Second capteur de température situé à 410 m
Heure (°C) (mm) (%) (hPa) (km/h) (km/h) (°C)
01:00 6.008810211NO11ENE6.1
02:00 5.908810213NO15N6.1
03:00 5.708610214N27N6.1
04:00 6.108510216N18NE6.1
05:00 6.70.28110207NNO26NNO6.7
06:00 6.308510207N29NNO6.1
07:00 6.108610203NNE16NE6.1
08:00 6.008510218N26NNO6.1
09:00 6.1085102110N29N6.1
10:00 6.5083102113N32N6.7
11:00 7.3081102114N34N7.2
12:00 7.7080102114N32N7.8
13:00 8.3079102116N37N8.3
14:00 9.2076102013N32NNO9.4
15:00 10.1073102014N32N10.6
16:00 10.2072102015N40N10.6
17:00 9.9072102014N35NNO10.0
18:00 10.107310199N31NNO10.0
19:00 10.607310196N21NNE10.6
20:00 10.207410195NNE29NNO10.6
21:00 9.807410198NE27ENE10.0
22:00 9.607510199NNE31NE10.0
23:00 9.4075101910NNE31N9.4
minuit 9.007510199N32NNE8.9

Graphique du 29-04-2019

 

Serveur OMMA